Time;durP1;ratioP1;P1;durP2;ratioP2;P2;SDS_P1;SDS_P2;PMS_P1;PMS_P2;Temp;Humidity;BMP_temperature;BMP_pressure;BME280_temperature;BME280_humidity;BME280_pressure;Samples;Min_cycle;Max_cycle;Signal;HPM_P1;HPM_P2
2021/09/06 00:01:57;;;;;;;43.20;22.73;;;17.60;99.90;;;;;;4836248;29;20522;-81
2021/09/06 00:04:30;;;;;;;;;;;18.80;99.90;;;;;;4836150;29;20060;-79
2021/09/06 00:06:57;;;;;;;48.25;23.50;;;17.60;99.90;;;;;;4826335;29;19924;-81
2021/09/06 00:09:26;;;;;;;46.05;23.20;;;17.60;99.90;;;;;;4816970;29;20062;-80
2021/09/06 00:11:55;;;;;;;54.80;27.30;;;17.50;99.90;;;;;;4835109;29;20251;-80
2021/09/06 00:14:28;;;;;;;49.85;24.42;;;17.50;99.90;;;;;;4842717;29;20054;-82
2021/09/06 00:16:57;;;;;;;52.10;25.50;;;17.50;99.90;;;;;;4822854;29;20048;-81
2021/09/06 00:19:27;;;;;;;48.20;24.67;;;17.40;99.90;;;;;;4834824;29;20050;-80
2021/09/06 00:21:57;;;;;;;66.20;27.17;;;17.40;99.90;;;;;;4834687;29;20058;-82
2021/09/06 00:24:27;;;;;;;59.63;23.85;;;17.40;99.90;;;;;;4835715;29;20061;-80
2021/09/06 00:27:09;;;;;;;50.78;25.77;;;17.40;99.90;;;;;;4847282;29;20059;-81
2021/09/06 00:29:38;;;;;;;56.85;22.98;;;17.40;99.90;;;;;;4840774;29;20050;-80
2021/09/06 00:32:07;;;;;;;62.47;28.88;;;17.40;99.90;;;;;;4818129;29;20059;-79
2021/09/06 00:34:36;;;;;;;48.22;28.27;;;17.40;99.90;;;;;;4836140;29;20339;-81
2021/09/06 00:37:04;;;;;;;63.20;25.05;;;17.40;99.90;;;;;;4816948;29;20051;-81
2021/09/06 00:39:35;;;;;;;55.45;24.40;;;17.30;99.90;;;;;;4809009;29;20058;-80
2021/09/06 00:42:03;;;;;;;54.95;22.70;;;17.30;99.90;;;;;;4815460;29;20059;-80
2021/09/06 00:44:35;;;;;;;48.00;24.63;;;17.30;99.90;;;;;;4831198;29;20069;-81
2021/09/06 00:47:03;;;;;;;57.25;23.40;;;17.30;99.90;;;;;;4834371;29;20905;-82
2021/09/06 00:49:31;;;;;;;43.25;23.83;;;17.30;99.90;;;;;;4835065;29;20138;-80
2021/09/06 00:52:02;;;;;;;47.38;23.42;;;17.20;99.90;;;;;;4843712;29;20058;-82
2021/09/06 00:54:32;;;;;;;51.17;22.58;;;17.20;99.90;;;;;;4832002;29;20055;-80
2021/09/06 00:57:00;;;;;;;51.72;24.90;;;17.30;99.90;;;;;;4815938;29;20059;-82
2021/09/06 00:59:33;;;;;;;59.00;24.90;;;17.30;99.90;;;;;;4818991;29;20065;-81
2021/09/06 01:02:03;;;;;;;54.80;22.25;;;17.30;99.90;;;;;;4834378;29;20056;-80
2021/09/06 01:04:42;;;;;;;51.97;24.20;;;17.30;99.90;;;;;;4834908;29;20062;-81
2021/09/06 01:07:35;;;;;;;55.90;24.98;;;17.40;99.90;;;;;;4831848;29;20481;-82
2021/09/06 01:10:23;;;;;;;58.55;23.25;;;17.30;99.90;;;;;;4806360;29;20070;-81
2021/09/06 01:13:21;;;;;;;50.15;22.98;;;17.30;99.90;;;;;;4806991;29;20062;-80
2021/09/06 01:15:51;;;;;;;48.03;24.35;;;17.30;99.90;;;;;;4834260;29;20060;-80
2021/09/06 01:18:21;;;;;;;46.45;23.10;;;17.30;99.90;;;;;;4815562;29;20065;-81
2021/09/06 01:20:52;;;;;;;53.83;24.95;;;17.30;99.90;;;;;;4816732;29;20053;-82
2021/09/06 01:23:49;;;;;;;47.95;23.92;;;17.30;99.90;;;;;;4818820;29;20054;-81
2021/09/06 01:26:21;;;;;;;50.95;26.85;;;17.30;99.90;;;;;;4812030;29;20216;-80
2021/09/06 01:28:50;;;;;;;50.35;24.83;;;17.30;99.90;;;;;;4831036;29;20065;-83
2021/09/06 01:31:19;;;;;;;56.53;25.65;;;17.30;99.90;;;;;;4833970;29;20051;-80
2021/09/06 01:33:50;;;;;;;53.97;28.07;;;17.30;99.90;;;;;;4811661;29;20051;-82
2021/09/06 01:36:20;;;;;;;53.40;24.33;;;17.30;99.90;;;;;;4833975;29;20563;-80
2021/09/06 01:38:51;;;;;;;53.58;26.83;;;17.30;99.90;;;;;;4800544;29;20054;-81
2021/09/06 01:41:32;;;;;;;64.70;29.77;;;17.30;99.90;;;;;;4802111;29;20066;-81
2021/09/06 01:44:06;;;;;;;68.00;31.90;;;17.30;99.90;;;;;;4803245;29;20054;-82
2021/09/06 01:46:35;;;;;;;70.53;29.60;;;17.30;99.90;;;;;;4833932;29;20061;-81
2021/09/06 01:49:06;;;;;;;63.00;29.17;;;17.30;99.90;;;;;;4833147;29;20076;-81
2021/09/06 01:51:36;;;;;;;76.78;31.25;;;17.30;99.90;;;;;;4831517;29;20052;-82
2021/09/06 01:54:04;;;;;;;64.72;29.77;;;17.30;99.90;;;;;;4835410;29;20054;-80
2021/09/06 01:56:33;;;;;;;58.75;28.67;;;17.30;99.90;;;;;;4831141;29;20050;-82
2021/09/06 01:59:04;;;;;;;75.43;32.30;;;17.30;99.90;;;;;;4819905;29;20065;-81
2021/09/06 02:01:32;;;;;;;65.82;30.23;;;17.30;99.90;;;;;;4834290;29;20042;-82
2021/09/06 02:04:06;;;;;;;79.85;32.60;;;17.30;99.90;;;;;;4812684;29;20061;-82
2021/09/06 02:06:49;;;;;;;73.28;33.20;;;17.30;99.90;;;;;;4833982;29;20050;-81
2021/09/06 02:09:20;;;;;;;67.65;32.55;;;17.30;99.90;;;;;;4835002;29;20051;-81
2021/09/06 02:11:49;;;;;;;71.30;34.28;;;17.40;99.90;;;;;;4819275;29;20060;-81
2021/09/06 02:14:22;;;;;;;79.80;32.45;;;17.40;99.90;;;;;;4808758;29;20529;-82
2021/09/06 02:16:53;;;;;;;78.70;36.57;;;17.40;99.90;;;;;;4816914;29;20061;-81
2021/09/06 02:19:32;;;;;;;92.20;36.28;;;17.40;99.90;;;;;;4816673;29;20062;-81
2021/09/06 02:22:01;;;;;;;98.22;36.70;;;17.40;99.90;;;;;;4831283;29;20061;-82
2021/09/06 02:24:39;;;;;;;93.00;37.67;;;17.40;99.90;;;;;;4818464;29;20059;-82
2021/09/06 02:27:20;;;;;;;98.15;35.67;;;17.30;99.90;;;;;;4806933;29;20055;-82
2021/09/06 02:29:49;;;;;;;96.10;36.70;;;17.40;99.90;;;;;;4836014;29;20060;-81
2021/09/06 02:32:23;;;;;;;87.82;36.55;;;17.30;99.90;;;;;;4835261;29;20054;-82
2021/09/06 02:35:19;;;;;;;99.43;36.97;;;17.30;99.90;;;;;;4822317;29;20066;-81
2021/09/06 02:37:48;;;;;;;101.03;39.33;;;17.40;99.90;;;;;;4832350;29;20047;-81
2021/09/06 02:40:28;;;;;;;107.13;42.17;;;17.30;99.90;;;;;;4821466;29;20056;-82
2021/09/06 02:42:56;;;;;;;108.00;43.67;;;17.30;99.90;;;;;;4822931;29;20051;-81
2021/09/06 02:45:24;;;;;;;114.22;39.40;;;17.40;99.90;;;;;;4822848;29;20062;-82
2021/09/06 02:47:57;;;;;;;;;;;17.40;99.90;;;;;;4820112;29;20061;-82
2021/09/06 02:50:34;;;;;;;164.07;43.22;;;17.30;99.90;;;;;;4831046;29;19935;-81
2021/09/06 02:53:05;;;;;;;95.53;35.97;;;17.00;99.90;;;;;;4833978;29;20057;-81
2021/09/06 02:55:34;;;;;;;126.10;39.33;;;17.30;99.90;;;;;;4836745;29;20050;-80
2021/09/06 02:58:04;;;;;;;115.18;37.80;;;17.40;99.90;;;;;;4822700;29;20603;-81
2021/09/06 03:00:33;;;;;;;126.32;38.92;;;17.30;99.90;;;;;;4844891;29;20038;-82
2021/09/06 03:03:04;;;;;;;98.55;35.65;;;17.30;99.90;;;;;;4822595;29;20069;-81
2021/09/06 03:05:33;;;;;;;96.93;36.08;;;17.30;99.90;;;;;;4829107;29;20042;-81
2021/09/06 03:08:02;;;;;;;98.38;35.42;;;17.30;99.90;;;;;;4839781;29;20404;-80
2021/09/06 03:10:33;;;;;;;85.68;33.67;;;17.30;99.90;;;;;;4826007;29;20054;-81
2021/09/06 03:13:07;;;;;;;94.00;34.35;;;17.30;99.90;;;;;;4823800;29;20421;-82
2021/09/06 03:15:35;;;;;;;150.15;41.90;;;17.30;99.90;;;;;;4838899;29;20058;-81
2021/09/06 03:18:04;;;;;;;101.95;35.67;;;17.30;99.90;;;;;;4821390;29;20112;-82
2021/09/06 03:21:03;;;;;;;109.13;36.65;;;17.20;99.90;;;;;;4835098;29;20059;-82
2021/09/06 03:23:34;;;;;;;111.70;40.38;;;17.40;99.90;;;;;;4839498;29;20054;-81
2021/09/06 03:26:03;;;;;;;147.25;45.63;;;17.40;99.90;;;;;;4838768;29;20046;-82
2021/09/06 03:28:36;;;;;;;154.10;43.03;;;17.40;99.90;;;;;;4839661;29;20050;-80
2021/09/06 03:31:04;;;;;;;160.38;43.42;;;17.40;99.90;;;;;;4837323;29;20046;-82
2021/09/06 03:33:40;;;;;;;214.65;46.80;;;17.30;99.90;;;;;;4824746;29;20060;-81
2021/09/06 03:36:13;;;;;;;168.73;42.90;;;17.30;99.90;;;;;;4816950;29;20054;-82
2021/09/06 03:38:43;;;;;;;113.65;37.55;;;17.20;99.90;;;;;;4825523;29;20054;-81
2021/09/06 03:41:11;;;;;;;110.45;37.08;;;18.40;99.90;;;;;;4826773;29;20046;-82
2021/09/06 03:43:42;;;;;;;90.20;32.92;;;17.20;99.90;;;;;;4839890;29;20038;-82
2021/09/06 03:46:11;;;;;;;230.77;46.67;;;17.20;99.90;;;;;;4839125;29;20038;-81
2021/09/06 03:48:45;;;;;;;122.93;40.42;;;17.20;99.90;;;;;;4838359;29;20065;-82
2021/09/06 03:51:21;;;;;;;87.03;30.13;;;17.20;99.90;;;;;;4821376;29;20067;-82
2021/09/06 03:53:50;;;;;;;129.93;34.70;;;17.20;99.90;;;;;;4831789;29;20042;-83
2021/09/06 03:56:22;;;;;;;77.88;27.48;;;17.20;99.90;;;;;;4839889;29;20054;-82
2021/09/06 03:58:51;;;;;;;169.05;40.65;;;17.20;99.90;;;;;;4820599;29;20063;-82
2021/09/06 04:01:20;;;;;;;97.60;35.40;;;17.20;99.90;;;;;;4820078;29;20055;-80
2021/09/06 04:03:49;;;;;;;133.60;36.90;;;17.20;99.90;;;;;;4806888;29;20053;-82
2021/09/06 04:06:18;;;;;;;136.98;35.03;;;17.20;99.90;;;;;;4833683;29;20055;-81
2021/09/06 04:08:50;;;;;;;196.10;47.87;;;17.20;99.90;;;;;;4807799;29;20050;-79
2021/09/06 04:11:19;;;;;;;172.70;39.83;;;17.20;99.90;;;;;;4837581;29;20042;-82
2021/09/06 04:13:47;;;;;;;243.85;49.70;;;17.20;99.90;;;;;;4828234;29;20054;-80
2021/09/06 04:16:17;;;;;;;120.43;32.72;;;17.10;99.90;;;;;;4839009;29;20042;-82
2021/09/06 04:18:53;;;;;;;116.57;32.08;;;17.10;99.90;;;;;;4839781;29;20050;-81
2021/09/06 04:21:24;;;;;;;172.88;40.35;;;17.10;99.90;;;;;;4820901;29;20059;-82
2021/09/06 04:23:54;;;;;;;162.70;39.05;;;17.10;99.90;;;;;;4839217;29;20055;-80
2021/09/06 04:26:24;;;;;;;178.83;40.63;;;17.10;99.90;;;;;;4839663;29;20053;-80
2021/09/06 04:28:56;;;;;;;136.23;36.78;;;17.00;99.90;;;;;;4840702;29;20050;-82
2021/09/06 04:31:28;;;;;;;163.35;38.20;;;17.00;99.90;;;;;;4839903;29;20050;-81
2021/09/06 04:33:59;;;;;;;294.98;52.22;;;17.00;99.90;;;;;;4824238;29;20061;-82
2021/09/06 04:36:33;;;;;;;296.65;62.83;;;17.00;99.90;;;;;;4838926;29;20067;-79
2021/09/06 04:39:02;;;;;;;185.57;45.90;;;17.00;99.90;;;;;;4838111;29;20058;-81
2021/09/06 04:41:39;;;;;;;217.02;45.22;;;17.00;99.90;;;;;;4838351;29;20057;-81
2021/09/06 04:44:10;;;;;;;204.27;49.13;;;17.00;99.90;;;;;;4822671;29;20079;-81
2021/09/06 04:46:42;;;;;;;144.48;38.75;;;17.00;99.90;;;;;;4821468;29;20059;-82
2021/09/06 04:49:14;;;;;;;303.95;59.83;;;16.90;99.90;;;;;;4818016;29;20054;-80
2021/09/06 04:51:43;;;;;;;159.05;41.30;;;17.00;99.90;;;;;;4836705;29;20041;-81
2021/09/06 04:54:19;;;;;;;173.30;48.65;;;16.90;99.90;;;;;;4835781;29;20062;-83
2021/09/06 04:56:50;;;;;;;147.70;47.03;;;16.90;99.90;;;;;;4818085;29;20054;-83
2021/09/06 04:59:22;;;;;;;175.73;48.92;;;16.20;99.90;;;;;;4819162;29;20055;-82
2021/09/06 05:01:52;;;;;;;178.10;53.35;;;16.90;99.90;;;;;;4803929;29;20065;-82
2021/09/06 05:04:21;;;;;;;188.95;50.63;;;16.90;99.90;;;;;;4831128;29;20058;-81
2021/09/06 05:06:50;;;;;;;163.05;46.47;;;17.00;99.90;;;;;;4830496;29;20038;-80
2021/09/06 05:09:21;;;;;;;112.30;43.47;;;17.00;99.90;;;;;;4834886;29;20060;-80
2021/09/06 05:11:51;;;;;;;129.68;46.33;;;17.00;99.90;;;;;;4823652;29;20062;-81
2021/09/06 05:14:25;;;;;;;115.30;38.75;;;17.00;99.90;;;;;;4826034;29;20074;-82
2021/09/06 05:16:55;;;;;;;121.88;40.08;;;17.00;99.90;;;;;;4834968;29;20046;-79
2021/09/06 05:19:24;;;;;;;149.93;41.55;;;17.00;99.90;;;;;;4837425;29;20053;-83
2021/09/06 05:21:52;;;;;;;188.05;45.80;;;17.00;99.90;;;;;;4838564;29;20051;-81
2021/09/06 05:24:21;;;;;;;167.18;44.70;;;17.10;99.90;;;;;;4836978;29;20060;-80
2021/09/06 05:26:50;;;;;;;129.55;36.92;;;17.00;99.90;;;;;;4819415;29;20059;-82
2021/09/06 05:29:23;;;;;;;120.47;35.45;;;17.10;99.90;;;;;;4838584;29;20062;-81
2021/09/06 05:31:59;;;;;;;145.73;38.95;;;17.10;99.90;;;;;;4835057;29;20050;-83
2021/09/06 05:34:28;;;;;;;121.45;37.67;;;16.60;99.90;;;;;;4820105;29;20046;-82
2021/09/06 05:36:57;;;;;;;88.47;32.63;;;17.10;99.90;;;;;;4816242;29;20062;-83
2021/09/06 05:39:28;;;;;;;96.53;35.00;;;17.10;99.90;;;;;;4818359;29;20061;-81
2021/09/06 05:42:01;;;;;;;149.50;36.10;;;17.10;99.90;;;;;;4801995;29;20057;-82
2021/09/06 05:44:34;;;;;;;151.38;35.72;;;17.00;99.90;;;;;;4835026;29;20071;-83
2021/09/06 05:47:03;;;;;;;123.88;33.17;;;17.00;99.90;;;;;;4833576;29;20054;-80
2021/09/06 05:49:36;;;;;;;118.50;36.83;;;17.00;99.90;;;;;;4816291;29;20058;-83
2021/09/06 05:52:06;;;;;;;250.30;44.13;;;17.00;99.90;;;;;;4811761;29;20046;-82
2021/09/06 05:54:39;;;;;;;138.35;38.13;;;17.00;99.90;;;;;;4827649;29;20055;-81
2021/09/06 05:57:13;;;;;;;95.35;35.33;;;17.00;99.90;;;;;;4833551;29;20062;-81
2021/09/06 05:59:41;;;;;;;142.90;36.80;;;17.00;99.90;;;;;;4831670;29;20042;-81
2021/09/06 06:02:11;;;;;;;84.13;30.15;;;17.00;99.90;;;;;;4819304;29;20063;-82
2021/09/06 06:04:41;;;;;;;84.22;27.85;;;17.00;99.90;;;;;;4818483;29;20054;-80
2021/09/06 06:07:10;;;;;;;172.77;38.70;;;17.10;99.90;;;;;;4834023;29;20061;-81
2021/09/06 06:09:43;;;;;;;144.13;37.78;;;17.00;99.90;;;;;;4834070;29;20062;-83
2021/09/06 06:12:12;;;;;;;213.68;42.72;;;17.10;99.90;;;;;;4833584;29;20051;-82
2021/09/06 06:14:50;;;;;;;101.30;26.13;;;17.10;99.90;;;;;;4832514;29;20058;-82
2021/09/06 06:17:25;;;;;;;117.78;34.15;;;17.10;99.90;;;;;;4833591;29;20059;-81
2021/09/06 06:19:53;;;;;;;119.60;33.10;;;17.10;99.90;;;;;;4815744;29;20373;-83
2021/09/06 06:22:45;;;;;;;107.40;29.75;;;17.10;99.90;;;;;;4832633;29;20054;-83
2021/09/06 06:25:25;;;;;;;118.95;28.83;;;17.10;99.90;;;;;;4833420;29;20058;-82
2021/09/06 06:28:15;;;;;;;;;;;17.10;99.90;;;;;;4818961;29;20046;-83
2021/09/06 06:30:45;;;;;;;142.68;29.15;;;17.10;99.90;;;;;;4805532;29;19931;-81
2021/09/06 06:33:14;;;;;;;109.95;26.63;;;17.10;99.90;;;;;;4816062;29;20069;-83
2021/09/06 06:35:46;;;;;;;82.63;23.67;;;17.10;99.90;;;;;;4818951;29;20046;-84
2021/09/06 06:38:14;;;;;;;196.43;37.53;;;17.10;99.90;;;;;;4819830;29;20054;-84
2021/09/06 06:40:50;;;;;;;144.35;28.23;;;17.10;99.90;;;;;;4824030;29;20058;-80
2021/09/06 06:43:34;;;;;;;91.28;25.80;;;17.20;99.90;;;;;;4826299;29;20054;-82
2021/09/06 06:46:06;;;;;;;82.40;24.13;;;17.20;99.90;;;;;;4824010;29;20051;-83
2021/09/06 06:48:37;;;;;;;79.07;25.80;;;17.20;99.90;;;;;;4823362;29;20046;-83
2021/09/06 06:51:22;;;;;;;87.18;25.98;;;17.20;99.90;;;;;;4839382;29;20069;-82
2021/09/06 06:53:58;;;;;;;106.35;30.38;;;17.20;99.90;;;;;;4819949;29;20058;-82
2021/09/06 06:56:33;;;;;;;193.82;40.25;;;17.30;99.90;;;;;;4839416;29;20049;-82
2021/09/06 06:59:09;;;;;;;118.93;30.73;;;17.30;99.90;;;;;;4838847;29;20050;-81
2021/09/06 07:01:40;;;;;;;131.55;31.30;;;17.30;99.90;;;;;;4807320;29;20046;-84
2021/09/06 07:04:09;;;;;;;81.88;27.85;;;17.40;99.90;;;;;;4834334;29;20042;-83
2021/09/06 07:06:42;;;;;;;81.20;28.33;;;17.40;99.90;;;;;;4820243;29;20067;-80
2021/09/06 07:09:14;;;;;;;71.18;24.58;;;17.50;99.90;;;;;;4821856;29;20050;-81
2021/09/06 07:11:44;;;;;;;66.93;26.15;;;17.70;99.90;;;;;;4836416;29;20054;-82
2021/09/06 07:14:13;;;;;;;57.13;22.73;;;17.60;99.90;;;;;;4837784;29;20307;-81
2021/09/06 07:16:41;;;;;;;65.75;24.45;;;17.70;99.90;;;;;;4824328;29;20046;-81
2021/09/06 07:19:10;;;;;;;91.93;29.52;;;17.70;99.90;;;;;;4837386;29;20050;-82
2021/09/06 07:21:41;;;;;;;86.10;26.42;;;17.80;99.90;;;;;;4823174;29;20045;-81
2021/09/06 07:24:12;;;;;;;;;;;17.80;99.90;;;;;;4835728;29;20066;-80
2021/09/06 07:26:40;;;;;;;77.05;26.45;;;17.80;99.90;;;;;;4825309;29;19935;-81
2021/09/06 07:29:10;;;;;;;79.88;27.65;;;17.30;99.90;;;;;;4835880;29;20050;-80
2021/09/06 07:31:39;;;;;;;74.45;27.40;;;17.90;99.90;;;;;;4837655;29;20042;-83
2021/09/06 07:34:12;;;;;;;82.95;27.25;;;17.90;99.90;;;;;;4815879;29;20047;-87
2021/09/06 07:36:42;;;;;;;66.88;27.65;;;17.90;99.90;;;;;;4799754;29;20085;-82
2021/09/06 07:39:16;;;;;;;70.25;28.60;;;18.00;99.90;;;;;;4823160;29;20420;-81
2021/09/06 07:41:45;;;;;;;78.35;30.90;;;18.00;99.90;;;;;;4835397;29;20051;-81
2021/09/06 07:44:14;;;;;;;75.25;27.45;;;18.10;99.90;;;;;;4804274;29;20063;-82
2021/09/06 07:46:47;;;;;;;62.72;27.98;;;18.20;99.90;;;;;;4836812;29;20412;-81
2021/09/06 07:49:15;;;;;;;80.93;28.70;;;18.20;99.90;;;;;;4838233;29;20068;-82
2021/09/06 07:52:04;;;;;;;71.18;28.20;;;18.30;99.90;;;;;;4830539;29;20050;-86
2021/09/06 07:54:41;;;;;;;76.90;30.90;;;18.40;99.90;;;;;;4836142;29;20050;-83
2021/09/06 07:57:13;;;;;;;66.97;30.23;;;18.50;99.90;;;;;;4835025;29;20042;-82
2021/09/06 07:59:42;;;;;;;72.10;29.77;;;18.50;99.90;;;;;;4834115;29;20054;-80
2021/09/06 08:02:18;;;;;;;68.03;28.67;;;18.50;99.90;;;;;;4838083;29;20068;-81
2021/09/06 08:04:51;;;;;;;67.85;29.90;;;18.60;99.90;;;;;;4839310;29;20054;-84
2021/09/06 08:07:21;;;;;;;69.95;29.00;;;18.60;99.90;;;;;;4818577;29;20058;-89
2021/09/06 08:09:50;;;;;;;62.83;31.58;;;18.60;99.90;;;;;;4835568;29;20497;-82
2021/09/06 08:12:18;;;;;;;72.15;28.20;;;18.70;99.90;;;;;;4833750;29;20061;-82
2021/09/06 08:14:50;;;;;;;51.65;25.33;;;18.70;99.90;;;;;;4827757;29;20057;-81
2021/09/06 08:17:18;;;;;;;55.55;24.33;;;18.80;99.90;;;;;;4826556;29;20069;-81
2021/09/06 08:19:52;;;;;;;59.47;26.63;;;18.90;99.90;;;;;;4831359;29;20050;-82
2021/09/06 08:22:21;;;;;;;54.53;26.10;;;18.90;99.90;;;;;;4820009;29;20064;-82
2021/09/06 08:24:50;;;;;;;48.88;25.88;;;19.00;99.90;;;;;;4833942;29;20046;-83
2021/09/06 08:27:21;;;;;;;61.47;28.50;;;19.00;99.90;;;;;;4821741;29;20070;-83
2021/09/06 08:29:51;;;;;;;59.08;27.48;;;19.10;99.90;;;;;;4815357;29;20071;-83
2021/09/06 08:32:20;;;;;;;51.63;26.85;;;19.20;99.90;;;;;;4818352;29;20046;-82
2021/09/06 08:34:54;;;;;;;53.83;25.08;;;19.20;99.90;;;;;;4836623;29;20053;-83
2021/09/06 08:37:32;;;;;;;50.17;24.77;;;19.20;99.90;;;;;;4821732;29;20054;-83
2021/09/06 08:40:15;;;;;;;59.08;27.40;;;19.30;99.90;;;;;;4820658;29;20062;-83
2021/09/06 08:42:43;;;;;;;52.60;24.88;;;19.20;99.90;;;;;;4823696;29;20046;-82
2021/09/06 08:45:14;;;;;;;50.03;26.38;;;19.30;99.90;;;;;;4816095;29;20054;-82
2021/09/06 08:47:47;;;;;;;63.33;28.17;;;19.30;99.90;;;;;;4794110;29;20054;-81
2021/09/06 08:50:20;;;;;;;52.90;26.95;;;19.30;99.90;;;;;;4814888;29;20053;-82
2021/09/06 08:52:48;;;;;;;54.53;26.73;;;19.30;99.90;;;;;;4828678;29;20056;-82
2021/09/06 08:55:17;;;;;;;55.28;25.75;;;19.40;99.90;;;;;;4832675;29;20065;-82
2021/09/06 08:57:50;;;;;;;58.53;26.23;;;19.50;99.90;;;;;;4830114;29;20051;-81
2021/09/06 09:00:36;;;;;;;56.47;28.33;;;19.60;99.90;;;;;;4814748;29;20062;-83
2021/09/06 09:03:37;;;;;;;48.13;27.30;;;19.70;99.90;;;;;;4824705;29;20072;-81
2021/09/06 09:06:22;;;;;;;51.08;26.83;;;19.90;99.90;;;;;;4828146;29;20054;-81
2021/09/06 09:09:30;;;;;;;60.20;27.02;;;20.00;99.90;;;;;;4822104;29;20078;-81
2021/09/06 09:12:22;;;;;;;58.92;27.30;;;20.10;99.90;;;;;;4835261;29;20053;-82
2021/09/06 09:15:07;;;;;;;57.38;28.70;;;20.20;99.90;;;;;;4829892;29;20058;-83
2021/09/06 09:18:06;;;;;;;53.80;26.70;;;20.30;99.90;;;;;;4820776;29;20064;-82
2021/09/06 09:21:06;;;;;;;54.90;26.92;;;20.50;99.90;;;;;;4821656;29;20054;-83
2021/09/06 09:24:01;;;;;;;58.35;27.83;;;20.50;99.90;;;;;;4816120;29;20058;-83
2021/09/06 09:26:56;;;;;;;;;;;20.80;99.90;;;;;;4803487;29;20057;-83
2021/09/06 09:29:46;;;;;;;55.30;27.58;;;20.90;99.90;;;;;;4819141;29;19928;-82
2021/09/06 09:32:37;;;;;;;;;;;21.00;99.90;;;;;;4827620;29;20063;-82
2021/09/06 09:35:30;;;;;;;49.25;26.73;;;21.10;99.90;;;;;;4806066;29;19935;-82
2021/09/06 09:38:03;;;;;;;52.00;24.75;;;21.30;99.90;;;;;;4830630;29;20058;-83
2021/09/06 09:40:41;;;;;;;50.75;26.08;;;21.40;99.90;;;;;;4833305;29;20058;-83
2021/09/06 09:43:10;;;;;;;58.53;26.02;;;21.60;99.90;;;;;;4833822;29;20047;-81
2021/09/06 09:45:39;;;;;;;48.75;26.42;;;21.70;99.90;;;;;;4818508;29;20051;-82
2021/09/06 09:48:28;;;;;;;44.75;23.30;;;21.80;99.90;;;;;;4824985;29;20057;-83
2021/09/06 09:51:00;;;;;;;51.70;26.95;;;21.90;99.90;;;;;;4814261;29;20051;-82
2021/09/06 09:53:30;;;;;;;50.17;26.63;;;22.00;99.90;;;;;;4815894;29;20065;-82
2021/09/06 09:55:59;;;;;;;49.13;22.63;;;22.10;99.90;;;;;;4815726;29;20563;-82
2021/09/06 09:58:28;;;;;;;43.80;22.55;;;22.20;99.90;;;;;;4831682;29;20064;-82
2021/09/06 10:01:00;;;;;;;45.97;24.65;;;22.30;99.90;;;;;;4835426;29;20062;-81
2021/09/06 10:03:34;;;;;;;47.38;24.75;;;22.40;99.90;;;;;;4832105;29;20056;-82
2021/09/06 10:06:07;;;;;;;45.40;24.85;;;22.60;99.90;;;;;;4831660;29;20054;-82
2021/09/06 10:08:37;;;;;;;48.15;25.20;;;22.70;99.90;;;;;;4833815;29;20058;-81
2021/09/06 10:11:12;;;;;;;41.30;22.92;;;22.80;99.90;;;;;;4804941;29;20062;-82
2021/09/06 10:13:42;;;;;;;57.22;24.55;;;22.80;99.90;;;;;;4832249;29;20058;-82
2021/09/06 10:16:13;;;;;;;41.65;21.63;;;22.90;99.90;;;;;;4830658;29;20051;-82
2021/09/06 10:18:42;;;;;;;46.28;22.98;;;23.00;99.90;;;;;;4832360;29;20056;-82
2021/09/06 10:21:17;;;;;;;44.08;23.45;;;23.10;99.90;;;;;;4839351;29;20055;-82
2021/09/06 10:23:51;;;;;;;41.90;22.48;;;23.20;99.90;;;;;;4831504;29;20071;-82
2021/09/06 10:26:32;;;;;;;40.78;21.42;;;23.30;99.90;;;;;;4836237;29;20047;-82
2021/09/06 10:29:12;;;;;;;37.60;23.30;;;23.30;99.90;;;;;;4835126;29;20050;-81
2021/09/06 10:31:41;;;;;;;42.70;23.50;;;23.40;99.90;;;;;;4830637;29;20050;-82
2021/09/06 10:34:21;;;;;;;43.83;23.25;;;23.40;99.90;;;;;;4834456;29;20042;-82
2021/09/06 10:37:03;;;;;;;42.20;22.40;;;23.40;99.90;;;;;;4830205;29;20047;-82
2021/09/06 10:39:33;;;;;;;;;;;23.50;99.90;;;;;;4837526;29;20054;-83
2021/09/06 10:42:07;;;;;;;41.22;22.17;;;23.50;99.90;;;;;;4825494;29;19935;-82
2021/09/06 10:44:39;;;;;;;36.92;21.75;;;23.50;99.90;;;;;;4835191;29;20038;-82
2021/09/06 10:47:11;;;;;;;47.08;22.10;;;23.60;99.90;;;;;;4831536;29;20050;-82
2021/09/06 10:49:43;;;;;;;40.50;20.73;;;23.60;99.90;;;;;;4833102;29;20057;-82
2021/09/06 10:52:14;;;;;;;41.20;20.67;;;23.70;99.90;;;;;;4806071;29;20058;-82
2021/09/06 10:54:46;;;;;;;44.65;23.30;;;23.80;99.90;;;;;;4832865;29;20058;-83
2021/09/06 10:57:14;;;;;;;48.23;24.47;;;24.10;99.90;;;;;;4837180;29;20072;-82
2021/09/06 10:59:45;;;;;;;45.50;22.23;;;24.00;99.90;;;;;;4834522;29;20046;-82
2021/09/06 11:02:16;;;;;;;48.35;22.42;;;24.10;99.90;;;;;;4829600;29;20058;-83
2021/09/06 11:04:44;;;;;;;51.22;22.20;;;24.20;99.90;;;;;;4829312;29;20057;-82
2021/09/06 11:07:14;;;;;;;45.50;22.88;;;24.30;99.90;;;;;;4809683;29;20066;-82
2021/09/06 11:09:44;;;;;;;41.67;20.58;;;24.40;99.90;;;;;;4817600;29;20058;-82
2021/09/06 11:12:14;;;;;;;38.35;21.08;;;24.40;99.90;;;;;;4831098;29;20066;-82
2021/09/06 11:14:47;;;;;;;40.22;19.40;;;24.40;99.90;;;;;;4829438;29;20050;-80
2021/09/06 11:17:25;;;;;;;42.50;21.15;;;24.40;99.90;;;;;;4829046;29;20067;-82
2021/09/06 11:19:56;;;;;;;37.70;20.23;;;24.50;99.90;;;;;;4830989;29;20047;-82
2021/09/06 11:22:29;;;;;;;34.95;18.15;;;24.60;99.90;;;;;;4833385;29;20050;-81
2021/09/06 11:25:02;;;;;;;36.17;19.05;;;24.70;99.90;;;;;;4819397;29;20046;-83
2021/09/06 11:27:36;;;;;;;32.92;18.65;;;24.80;99.90;;;;;;4837795;29;20058;-82
2021/09/06 11:30:06;;;;;;;36.75;18.33;;;24.80;99.90;;;;;;4834943;29;20051;-82
2021/09/06 11:32:47;;;;;;;38.83;18.30;;;24.90;99.80;;;;;;4821694;29;20039;-82
2021/09/06 11:35:16;;;;;;;39.17;18.63;;;25.00;99.50;;;;;;4828141;29;20052;-83
2021/09/06 11:37:45;;;;;;;38.20;19.92;;;25.10;99.40;;;;;;4813951;29;20062;-82
2021/09/06 11:40:14;;;;;;;37.13;19.42;;;25.20;99.10;;;;;;4801538;29;20062;-81
2021/09/06 11:42:44;;;;;;;37.83;19.67;;;25.20;99.00;;;;;;4827940;29;20054;-82
2021/09/06 11:45:19;;;;;;;41.35;18.48;;;25.30;99.00;;;;;;4838986;29;20062;-81
2021/09/06 11:48:01;;;;;;;40.60;20.30;;;25.40;98.80;;;;;;4838252;29;20046;-82
2021/09/06 11:50:40;;;;;;;36.83;16.80;;;25.40;98.50;;;;;;4833292;29;20053;-81
2021/09/06 11:53:15;;;;;;;33.92;17.98;;;25.50;98.60;;;;;;4819914;29;20051;-81
2021/09/06 11:55:55;;;;;;;39.38;18.00;;;25.60;98.50;;;;;;4819317;29;20051;-81
2021/09/06 11:58:45;;;;;;;35.28;17.63;;;25.80;98.30;;;;;;4828381;29;20061;-82
2021/09/06 12:01:15;;;;;;;34.25;18.30;;;26.00;98.50;;;;;;4831221;29;20063;-82
2021/09/06 12:03:46;;;;;;;35.65;17.50;;;26.10;98.30;;;;;;4835947;29;20061;-82
2021/09/06 12:06:17;;;;;;;32.40;16.55;;;26.30;98.20;;;;;;4817567;29;20050;-82
2021/09/06 12:08:58;;;;;;;35.63;18.23;;;26.40;97.90;;;;;;4835307;29;20066;-81
2021/09/06 12:11:49;;;;;;;31.30;16.80;;;26.60;97.50;;;;;;4835949;29;20050;-82
2021/09/06 12:14:17;;;;;;;31.70;16.50;;;26.80;97.90;;;;;;4819523;29;20074;-81
2021/09/06 12:16:57;;;;;;;34.72;17.80;;;26.90;97.50;;;;;;4833928;29;20046;-82
2021/09/06 12:19:26;;;;;;;38.43;19.13;;;27.10;96.80;;;;;;4818564;29;20113;-82
2021/09/06 12:21:56;;;;;;;32.95;17.77;;;27.20;97.40;;;;;;4831981;29;20054;-82
2021/09/06 12:24:28;;;;;;;29.98;15.65;;;27.30;97.20;;;;;;4821230;29;20050;-82
2021/09/06 12:26:56;;;;;;;30.08;15.35;;;27.50;97.00;;;;;;4830614;29;20043;-82
2021/09/06 12:29:27;;;;;;;33.75;16.02;;;27.60;96.90;;;;;;4817222;29;20065;-82
2021/09/06 12:31:55;;;;;;;47.17;18.83;;;27.70;96.20;;;;;;4829200;29;20051;-80
2021/09/06 12:34:23;;;;;;;34.05;16.38;;;27.20;96.40;;;;;;4820405;29;20061;-81
2021/09/06 12:37:03;;;;;;;39.83;16.42;;;27.50;96.40;;;;;;4831322;29;20051;-81
2021/09/06 12:39:35;;;;;;;30.55;15.40;;;27.50;96.30;;;;;;4806025;29;20153;-81
2021/09/06 12:42:05;;;;;;;30.98;15.27;;;27.40;96.40;;;;;;4832734;29;20064;-81
2021/09/06 12:44:34;;;;;;;32.92;17.40;;;27.40;96.30;;;;;;4826060;29;20402;-81
2021/09/06 12:47:04;;;;;;;41.35;16.00;;;27.40;96.30;;;;;;4816373;29;20069;-80
2021/09/06 12:49:33;;;;;;;33.88;16.25;;;27.30;96.40;;;;;;4816049;29;20050;-81
2021/09/06 12:52:03;;;;;;;28.02;15.70;;;27.20;96.40;;;;;;4824111;29;20066;-81
2021/09/06 12:54:31;;;;;;;33.20;15.70;;;27.20;96.40;;;;;;4816421;29;20550;-81
2021/09/06 12:57:00;;;;;;;37.22;15.75;;;27.20;96.40;;;;;;4810377;29;20053;-81